createdAt,value
2017-02-16T00:00:30.631Z,39.31
2017-02-16T00:01:31.273Z,39.61
2017-02-16T00:02:31.313Z,39.51
2017-02-16T00:03:30.330Z,39.7
2017-02-16T00:04:30.754Z,39.61
2017-02-16T00:05:30.783Z,39.89
2017-02-16T00:06:31.106Z,39.89
2017-02-16T00:07:31.327Z,39.89
2017-02-16T00:08:31.280Z,39.99
2017-02-16T00:09:30.896Z,39.89
2017-02-16T00:10:30.965Z,39.89
2017-02-16T00:11:30.940Z,39.99
2017-02-16T00:12:31.039Z,39.89
2017-02-16T00:13:31.515Z,40.09
2017-02-16T00:14:31.034Z,39.61
2017-02-16T00:15:31.232Z,39.61
2017-02-16T00:16:31.073Z,40.09
2017-02-16T00:17:31.631Z,39.99
2017-02-16T00:18:30.735Z,39.99
2017-02-16T00:19:31.360Z,40.19
2017-02-16T00:20:31.760Z,39.99
2017-02-16T00:21:30.824Z,39.99
2017-02-16T00:22:31.753Z,40.07
2017-02-16T00:23:31.626Z,39.79
2017-02-16T00:24:31.763Z,40.19
2017-02-16T00:25:31.319Z,39.79
2017-02-16T00:26:31.358Z,40.07
2017-02-16T00:27:31.376Z,39.79
2017-02-16T00:28:31.270Z,39.89
2017-02-16T00:29:31.056Z,40.07
2017-02-16T00:30:31.205Z,39.89
2017-02-16T00:31:31.778Z,39.99
2017-02-16T00:32:31.641Z,39.87
2017-02-16T00:33:31.527Z,39.89
2017-02-16T00:34:31.807Z,39.97
2017-02-16T00:35:31.685Z,39.87
2017-02-16T00:36:31.610Z,39.87
2017-02-16T00:37:31.893Z,39.89
2017-02-16T00:38:31.814Z,39.87
2017-02-16T00:39:31.299Z,39.79
2017-02-16T00:40:31.732Z,39.79
2017-02-16T00:41:31.805Z,39.68
2017-02-16T00:42:32.581Z,39.59
2017-02-16T00:43:32.467Z,39.68
2017-02-16T00:44:31.829Z,39.78
2017-02-16T00:45:32.021Z,39.78
2017-02-16T00:46:31.834Z,39.78
2017-02-16T00:47:32.170Z,39.59
2017-02-16T00:48:31.940Z,39.68
2017-02-16T00:49:31.967Z,39.68
2017-02-16T00:50:32.023Z,39.59
2017-02-16T00:51:32.254Z,39.59
2017-02-16T00:52:32.308Z,39.39
2017-02-16T00:53:31.786Z,39.78
2017-02-16T00:54:32.681Z,39.78
2017-02-16T00:55:31.745Z,40.16
2017-02-16T00:56:32.170Z,40.26
2017-02-16T00:57:32.438Z,39.68
2017-02-16T00:58:32.652Z,40.07
2017-02-16T00:59:32.234Z,40.07
2017-02-16T01:00:31.963Z,40.07
2017-02-16T01:01:32.930Z,39.97
2017-02-16T01:02:32.178Z,39.97
2017-02-16T01:03:32.738Z,39.78
2017-02-16T01:04:32.862Z,39.97
2017-02-16T01:05:32.497Z,39.78
2017-02-16T01:06:32.420Z,39.97
2017-02-16T01:07:32.817Z,39.78
2017-02-16T01:08:32.474Z,39.78
2017-02-16T01:09:32.674Z,39.97
2017-02-16T01:10:32.579Z,40.16
2017-02-16T01:11:32.561Z,39.87
2017-02-16T01:12:33.419Z,40.07
2017-02-16T01:13:32.238Z,40.07
2017-02-16T01:14:32.697Z,39.87
2017-02-16T01:15:32.955Z,39.97
2017-02-16T01:16:33.025Z,39.97
2017-02-16T01:17:33.531Z,39.97
2017-02-16T01:18:33.313Z,39.87
2017-02-16T01:19:32.947Z,39.97
2017-02-16T01:20:32.411Z,40.07
2017-02-16T01:21:33.007Z,39.87
2017-02-16T01:22:32.455Z,39.97
2017-02-16T01:23:32.891Z,39.97
2017-02-16T01:24:32.529Z,39.87
2017-02-16T01:25:33.139Z,39.97
2017-02-16T01:26:32.967Z,39.87
2017-02-16T01:27:32.592Z,39.97
2017-02-16T01:28:33.143Z,40.07
2017-02-16T01:29:33.037Z,39.97
2017-02-16T01:30:33.229Z,39.97
2017-02-16T01:31:33.103Z,39.97
2017-02-16T01:32:32.726Z,40.07
2017-02-16T01:33:33.291Z,39.97
2017-02-16T01:34:33.773Z,40.07
2017-02-16T01:35:33.308Z,39.95
2017-02-16T01:36:33.225Z,40.07
2017-02-16T01:37:33.341Z,39.97
2017-02-16T01:38:33.355Z,39.87
2017-02-16T01:39:33.309Z,39.95
2017-02-16T01:40:33.337Z,39.95
2017-02-16T01:41:32.989Z,40.07
2017-02-16T01:42:33.504Z,40.07
2017-02-16T01:43:33.150Z,40.16
2017-02-16T01:44:33.674Z,40.07
2017-02-16T01:45:33.560Z,40.05
2017-02-16T01:46:33.695Z,39.95
2017-02-16T01:47:33.130Z,39.95
2017-02-16T01:48:33.550Z,40.05
2017-02-16T01:49:33.574Z,40.05
2017-02-16T01:50:34.231Z,40.14
2017-02-16T01:51:33.232Z,40.24
2017-02-16T01:52:33.656Z,40.05
2017-02-16T01:53:34.281Z,39.95
2017-02-16T01:54:33.708Z,39.95
2017-02-16T01:55:34.365Z,39.87
2017-02-16T01:56:33.896Z,39.95
2017-02-16T01:57:34.354Z,39.95
2017-02-16T01:58:33.823Z,39.95
2017-02-16T01:59:33.847Z,40.05
2017-02-16T02:00:33.473Z,40.05
2017-02-16T02:01:33.923Z,40.05
2017-02-16T02:02:34.479Z,40.14
2017-02-16T02:03:34.277Z,39.95
2017-02-16T02:04:34.027Z,40.05
2017-02-16T02:05:34.581Z,40.05
2017-02-16T02:06:34.024Z,40.05
2017-02-16T02:07:34.093Z,40.05
2017-02-16T02:08:34.508Z,39.95
2017-02-16T02:09:34.119Z,39.95
2017-02-16T02:10:33.758Z,39.95
2017-02-16T02:11:33.789Z,40.05
2017-02-16T02:12:34.358Z,40.34
2017-02-16T02:13:34.465Z,40.43
2017-02-16T02:14:34.123Z,39.95
2017-02-16T02:15:34.688Z,40.05
2017-02-16T02:16:34.491Z,40.24
2017-02-16T02:17:34.320Z,39.95
2017-02-16T02:18:34.600Z,40.24
2017-02-16T02:19:33.979Z,40.14
2017-02-16T02:20:35.005Z,40.05
2017-02-16T02:21:34.374Z,40.14
2017-02-16T02:22:34.064Z,40.14
2017-02-16T02:23:34.919Z,40.14
2017-02-16T02:24:34.919Z,40.14
2017-02-16T02:25:34.139Z,40.34
2017-02-16T02:26:34.573Z,40.34
2017-02-16T02:27:34.569Z,40.24
2017-02-16T02:28:34.869Z,40.34
2017-02-16T02:29:34.245Z,40.14
2017-02-16T02:30:34.275Z,40.05
2017-02-16T02:31:35.302Z,40.34
2017-02-16T02:32:34.334Z,40.14
2017-02-16T02:33:35.109Z,40.14
2017-02-16T02:34:34.648Z,40.34
2017-02-16T02:35:34.806Z,40.14
2017-02-16T02:36:35.368Z,40.14
2017-02-16T02:37:35.059Z,39.95
2017-02-16T02:38:35.773Z,40.14
2017-02-16T02:39:34.902Z,40.14
2017-02-16T02:40:34.532Z,40.14
2017-02-16T02:41:34.954Z,39.76
2017-02-16T02:42:35.556Z,40.14
2017-02-16T02:43:35.854Z,39.95
2017-02-16T02:44:35.029Z,40.24
2017-02-16T02:45:35.185Z,40.05
2017-02-16T02:46:35.312Z,40.14
2017-02-16T02:47:35.120Z,40.14
2017-02-16T02:48:35.143Z,40.43
2017-02-16T02:49:35.168Z,39.95
2017-02-16T02:50:35.400Z,40.43
2017-02-16T02:51:35.748Z,40.14
2017-02-16T02:52:35.338Z,40.43
2017-02-16T02:53:35.276Z,40.53
2017-02-16T02:54:35.353Z,39.86
2017-02-16T02:55:35.332Z,40.53
2017-02-16T02:56:35.363Z,40.81
2017-02-16T02:57:35.378Z,40.53
2017-02-16T02:58:35.959Z,39.95
2017-02-16T02:59:35.057Z,40.53
2017-02-16T03:00:35.060Z,40.63
2017-02-16T03:01:35.879Z,40.43
2017-02-16T03:02:35.990Z,40.81
2017-02-16T03:03:35.737Z,40.43
2017-02-16T03:04:35.565Z,40.7
2017-02-16T03:05:35.597Z,40.43
2017-02-16T03:06:36.044Z,39.95
2017-02-16T03:07:36.057Z,40.43
2017-02-16T03:08:36.175Z,40.63
2017-02-16T03:09:35.703Z,40.63
2017-02-16T03:10:35.724Z,40.81
2017-02-16T03:11:36.115Z,40.72
2017-02-16T03:12:35.778Z,40.8
2017-02-16T03:13:35.802Z,40.51
2017-02-16T03:14:35.831Z,40.43
2017-02-16T03:15:35.932Z,40.89
2017-02-16T03:16:35.887Z,40.7
2017-02-16T03:17:36.485Z,40.61
2017-02-16T03:18:35.577Z,40.89
2017-02-16T03:19:36.246Z,40.53
2017-02-16T03:20:36.003Z,40.7
2017-02-16T03:21:36.488Z,40.61
2017-02-16T03:22:36.172Z,40.41
2017-02-16T03:23:35.685Z,40.7
2017-02-16T03:24:36.353Z,40.7
2017-02-16T03:25:36.372Z,40.51
2017-02-16T03:26:36.168Z,40.51
2017-02-16T03:27:35.789Z,40.51
2017-02-16T03:28:36.803Z,40.7
2017-02-16T03:29:37.003Z,40.72
2017-02-16T03:30:35.850Z,40.41
2017-02-16T03:31:36.852Z,40.7
2017-02-16T03:32:36.380Z,40.51
2017-02-16T03:33:36.434Z,40.61
2017-02-16T03:34:36.610Z,40.72
2017-02-16T03:35:36.631Z,40.7
2017-02-16T03:36:36.019Z,40.8
2017-02-16T03:37:36.447Z,40.61
2017-02-16T03:38:36.079Z,40.61
2017-02-16T03:39:37.321Z,40.61
2017-02-16T03:40:36.751Z,40.61
2017-02-16T03:41:36.546Z,40.7
2017-02-16T03:42:37.007Z,40.7
2017-02-16T03:43:37.058Z,40.7
2017-02-16T03:44:36.891Z,40.7
2017-02-16T03:45:36.657Z,40.61
2017-02-16T03:46:37.284Z,40.7
2017-02-16T03:47:36.705Z,40.61
2017-02-16T03:48:36.735Z,40.61
2017-02-16T03:49:37.006Z,40.61
2017-02-16T03:50:36.973Z,40.8
2017-02-16T03:51:36.845Z,40.7
2017-02-16T03:52:36.949Z,40.61
2017-02-16T03:53:37.415Z,40.61
2017-02-16T03:54:36.941Z,40.7
2017-02-16T03:55:36.571Z,40.61
2017-02-16T03:56:37.070Z,40.61
2017-02-16T03:57:36.965Z,40.8
2017-02-16T03:58:37.613Z,40.8
2017-02-16T03:59:37.192Z,40.61
2017-02-16T04:00:37.042Z,40.51
2017-02-16T04:01:37.198Z,40.61
2017-02-16T04:02:37.671Z,40.8
2017-02-16T04:03:37.698Z,40.7
2017-02-16T04:04:37.404Z,40.61
2017-02-16T04:05:36.779Z,40.61
2017-02-16T04:06:37.208Z,40.8
2017-02-16T04:07:37.637Z,40.61
2017-02-16T04:08:36.865Z,40.7
2017-02-16T04:09:37.371Z,40.61
2017-02-16T04:10:37.426Z,40.61
2017-02-16T04:11:37.330Z,40.8
2017-02-16T04:12:37.513Z,40.7
2017-02-16T04:13:37.441Z,40.7
2017-02-16T04:14:37.416Z,40.7
2017-02-16T04:15:37.434Z,40.8
2017-02-16T04:16:37.211Z,40.7
2017-02-16T04:17:37.094Z,40.61
2017-02-16T04:18:37.512Z,40.51
2017-02-16T04:19:37.549Z,40.61
2017-02-16T04:20:37.748Z,40.61
2017-02-16T04:21:37.595Z,40.61
2017-02-16T04:22:37.619Z,40.41
2017-02-16T04:23:37.842Z,40.61
2017-02-16T04:24:37.283Z,40.7
2017-02-16T04:25:37.743Z,40.7
2017-02-16T04:26:37.743Z,40.8
2017-02-16T04:27:37.771Z,40.61
2017-02-16T04:28:37.777Z,40.61
2017-02-16T04:29:37.409Z,40.61
2017-02-16T04:30:38.192Z,40.61
2017-02-16T04:31:37.767Z,40.61
2017-02-16T04:32:37.877Z,40.61
2017-02-16T04:33:37.517Z,40.7
2017-02-16T04:34:38.484Z,40.61
2017-02-16T04:35:38.051Z,40.61
2017-02-16T04:36:37.870Z,40.8
2017-02-16T04:37:38.658Z,40.61
2017-02-16T04:38:38.613Z,40.61
2017-02-16T04:39:38.062Z,40.7
2017-02-16T04:40:38.208Z,40.8
2017-02-16T04:41:38.341Z,40.61
2017-02-16T04:42:38.141Z,40.7
2017-02-16T04:43:38.399Z,40.61
2017-02-16T04:44:38.199Z,40.8
2017-02-16T04:45:38.540Z,40.61
2017-02-16T04:46:38.759Z,40.61
2017-02-16T04:47:37.881Z,40.61
2017-02-16T04:48:37.920Z,40.8
2017-02-16T04:49:38.359Z,40.61
2017-02-16T04:50:39.202Z,40.7
2017-02-16T04:51:38.930Z,40.61
2017-02-16T04:52:38.962Z,40.8
2017-02-16T04:53:38.032Z,40.61
2017-02-16T04:54:38.537Z,40.68
2017-02-16T04:55:39.300Z,40.61
2017-02-16T04:56:38.731Z,40.61
2017-02-16T04:57:39.059Z,40.61
2017-02-16T04:58:38.569Z,40.8
2017-02-16T04:59:38.192Z,40.78
2017-02-16T05:00:38.871Z,40.68
2017-02-16T05:01:39.142Z,40.68
2017-02-16T05:02:38.841Z,40.68
2017-02-16T05:03:38.297Z,40.58
2017-02-16T05:04:39.318Z,40.58
2017-02-16T05:05:39.312Z,40.58
2017-02-16T05:06:38.776Z,40.58
2017-02-16T05:07:38.796Z,40.68
2017-02-16T05:08:39.370Z,40.68
2017-02-16T05:09:38.460Z,40.78
2017-02-16T05:10:39.138Z,40.58
2017-02-16T05:11:38.891Z,40.58
2017-02-16T05:12:39.525Z,40.68
2017-02-16T05:13:38.953Z,40.68
2017-02-16T05:14:39.033Z,40.58
2017-02-16T05:15:39.256Z,40.68
2017-02-16T05:16:38.711Z,40.7
2017-02-16T05:17:38.664Z,40.68
2017-02-16T05:18:39.084Z,40.58
2017-02-16T05:19:39.108Z,40.11
2017-02-16T05:20:39.393Z,40.3
2017-02-16T05:21:39.125Z,40.58
2017-02-16T05:22:39.324Z,40.49
2017-02-16T05:23:38.812Z,40.49
2017-02-16T05:24:39.241Z,40.3
2017-02-16T05:25:40.081Z,40.39
2017-02-16T05:26:38.900Z,40.61
2017-02-16T05:27:39.329Z,40.61
2017-02-16T05:28:39.343Z,40.61
2017-02-16T05:29:39.462Z,40.61
2017-02-16T05:30:39.668Z,40.7
2017-02-16T05:31:39.996Z,40.51
2017-02-16T05:32:39.898Z,40.41
2017-02-16T05:33:39.550Z,40.12
2017-02-16T05:34:39.501Z,39.93
2017-02-16T05:35:39.784Z,40.12
2017-02-16T05:36:39.559Z,40.03
2017-02-16T05:37:40.166Z,40.03
2017-02-16T05:38:39.312Z,40.03
2017-02-16T05:39:40.094Z,39.93
2017-02-16T05:40:40.423Z,39.83
2017-02-16T05:41:39.989Z,39.64
2017-02-16T05:42:39.723Z,40.22
2017-02-16T05:43:39.339Z,40.03
2017-02-16T05:44:39.368Z,40.05
2017-02-16T05:45:40.474Z,39.76
2017-02-16T05:46:39.426Z,39.36
2017-02-16T05:47:40.094Z,39.66
2017-02-16T05:48:39.477Z,39.66
2017-02-16T05:49:39.936Z,39.66
2017-02-16T05:50:39.526Z,39.76
2017-02-16T05:51:39.555Z,39.56
2017-02-16T05:52:39.974Z,39.86
2017-02-16T05:53:40.164Z,39.95
2017-02-16T05:54:40.040Z,39.95
2017-02-16T05:55:40.217Z,39.95
2017-02-16T05:56:40.494Z,39.76
2017-02-16T05:57:40.102Z,39.76
2017-02-16T05:58:40.149Z,40.05
2017-02-16T05:59:40.691Z,39.95
2017-02-16T06:00:40.387Z,39.86
2017-02-16T06:01:40.218Z,39.47
2017-02-16T06:02:40.244Z,39.37
2017-02-16T06:03:40.249Z,39.47
2017-02-16T06:04:40.293Z,39.09
2017-02-16T06:05:40.524Z,39.09
2017-02-16T06:06:40.700Z,39.66
2017-02-16T06:07:40.255Z,39.47
2017-02-16T06:08:40.861Z,39.47
2017-02-16T06:09:40.027Z,39.18
2017-02-16T06:10:40.453Z,39.37
2017-02-16T06:11:40.474Z,39.56
2017-02-16T06:12:40.502Z,39.47
2017-02-16T06:13:40.175Z,39.28
2017-02-16T06:14:40.320Z,39.37
2017-02-16T06:15:40.387Z,39.47
2017-02-16T06:16:40.221Z,39.47
2017-02-16T06:17:40.629Z,39.37
2017-02-16T06:18:40.275Z,39.39
2017-02-16T06:19:40.681Z,39.49
2017-02-16T06:20:40.835Z,39.49
2017-02-16T06:21:41.015Z,39.01
2017-02-16T06:22:41.174Z,38.91
2017-02-16T06:23:40.794Z,38.89
2017-02-16T06:24:40.627Z,39.01
2017-02-16T06:25:41.415Z,39.01
2017-02-16T06:26:40.874Z,38.81
2017-02-16T06:27:40.905Z,38.79
2017-02-16T06:28:40.991Z,38.6
2017-02-16T06:29:41.524Z,39.01
2017-02-16T06:30:40.976Z,38.91
2017-02-16T06:31:41.404Z,39.01
2017-02-16T06:32:41.133Z,38.91
2017-02-16T06:33:41.296Z,39.11
2017-02-16T06:34:41.097Z,39.11
2017-02-16T06:35:40.711Z,38.91
2017-02-16T06:36:40.738Z,38.81
2017-02-16T06:37:41.549Z,38.91
2017-02-16T06:38:41.595Z,39.11
2017-02-16T06:39:41.220Z,39.01
2017-02-16T06:40:41.235Z,38.72
2017-02-16T06:41:40.873Z,38.81
2017-02-16T06:42:41.058Z,38.62
2017-02-16T06:43:41.445Z,38.91
2017-02-16T06:44:41.368Z,38.62
2017-02-16T06:45:41.368Z,38.53
2017-02-16T06:46:41.423Z,38.53
2017-02-16T06:47:41.533Z,38.53
2017-02-16T06:48:41.449Z,38.81
2017-02-16T06:49:41.093Z,38.91
2017-02-16T06:50:41.529Z,38.43
2017-02-16T06:51:41.667Z,38.72
2017-02-16T06:52:41.744Z,38.43
2017-02-16T06:53:41.587Z,38.72
2017-02-16T06:54:41.219Z,39.01
2017-02-16T06:55:41.848Z,38.72
2017-02-16T06:56:42.267Z,38.62
2017-02-16T06:57:42.309Z,38.62
2017-02-16T06:58:41.718Z,38.91
2017-02-16T06:59:41.741Z,38.91
2017-02-16T07:00:42.202Z,39.11
2017-02-16T07:01:41.788Z,39.2
2017-02-16T07:02:41.820Z,38.72
2017-02-16T07:03:42.386Z,38.81
2017-02-16T07:04:41.476Z,38.64
2017-02-16T07:05:41.899Z,38.83
2017-02-16T07:06:41.979Z,38.93
2017-02-16T07:07:41.610Z,38.45
2017-02-16T07:08:42.304Z,38.45
2017-02-16T07:09:41.616Z,39.03
2017-02-16T07:10:42.036Z,39.03
2017-02-16T07:11:42.061Z,38.64
2017-02-16T07:12:42.563Z,38.81
2017-02-16T07:13:42.307Z,38.74
2017-02-16T07:14:41.746Z,38.93
2017-02-16T07:15:42.483Z,38.74
2017-02-16T07:16:41.804Z,38.74
2017-02-16T07:17:41.836Z,38.93
2017-02-16T07:18:42.309Z,38.83
2017-02-16T07:19:42.707Z,38.45
2017-02-16T07:20:42.306Z,38.35
2017-02-16T07:21:42.183Z,38.45
2017-02-16T07:22:42.378Z,38.54
2017-02-16T07:23:42.441Z,38.16
2017-02-16T07:24:42.619Z,38.45
2017-02-16T07:25:42.672Z,37.87
2017-02-16T07:26:42.311Z,38.06
2017-02-16T07:27:42.809Z,38.06
2017-02-16T07:28:42.303Z,37.87
2017-02-16T07:29:42.549Z,38.06
2017-02-16T07:30:42.582Z,37.87
2017-02-16T07:31:43.343Z,37.68
2017-02-16T07:32:42.736Z,37.58
2017-02-16T07:33:42.646Z,37.77
2017-02-16T07:34:42.678Z,37.96
2017-02-16T07:35:42.746Z,37.87
2017-02-16T07:36:43.099Z,37.58
2017-02-16T07:37:42.531Z,37.58
2017-02-16T07:38:43.002Z,37.68
2017-02-16T07:39:42.809Z,37.68
2017-02-16T07:40:42.834Z,37.58
2017-02-16T07:41:43.142Z,37.68
2017-02-16T07:42:42.882Z,37.29
2017-02-16T07:43:42.911Z,37.48
2017-02-16T07:44:42.661Z,37.5
2017-02-16T07:45:42.580Z,37.58
2017-02-16T07:46:43.092Z,37.6
2017-02-16T07:47:42.626Z,37.39
2017-02-16T07:48:43.510Z,37.41
2017-02-16T07:49:43.260Z,37.5
2017-02-16T07:50:43.107Z,37.41
2017-02-16T07:51:43.375Z,37.12
2017-02-16T07:52:43.154Z,37.19
2017-02-16T07:53:43.245Z,37.21
2017-02-16T07:54:43.002Z,37.29
2017-02-16T07:55:43.507Z,37.41
2017-02-16T07:56:43.125Z,37.39
2017-02-16T07:57:43.008Z,37.41
2017-02-16T07:58:43.594Z,37.41
2017-02-16T07:59:43.355Z,37.1
2017-02-16T08:00:43.367Z,37.48
2017-02-16T08:01:43.806Z,37.7
2017-02-16T08:02:43.045Z,37.5
2017-02-16T08:03:43.434Z,37.7
2017-02-16T08:04:43.936Z,37.6
2017-02-16T08:05:43.471Z,37.31
2017-02-16T08:06:44.204Z,37.5
2017-02-16T08:07:43.564Z,37.12
2017-02-16T08:08:43.189Z,37.41
2017-02-16T08:09:43.652Z,37.41
2017-02-16T08:10:43.661Z,37.41
2017-02-16T08:11:44.147Z,37.12
2017-02-16T08:12:43.294Z,37.31
2017-02-16T08:13:43.720Z,37.12
2017-02-16T08:14:43.616Z,37.31
2017-02-16T08:15:43.960Z,37.31
2017-02-16T08:16:44.296Z,37.31
2017-02-16T08:17:44.189Z,37.21
2017-02-16T08:18:43.849Z,37.5
2017-02-16T08:19:43.886Z,37.21
2017-02-16T08:20:43.915Z,37.21
2017-02-16T08:21:44.431Z,37.41
2017-02-16T08:22:44.201Z,37.21
2017-02-16T08:23:44.005Z,37.12
2017-02-16T08:24:44.004Z,37.41
2017-02-16T08:25:44.055Z,37.21
2017-02-16T08:26:44.591Z,37.31
2017-02-16T08:27:44.284Z,37.6
2017-02-16T08:28:44.137Z,37.6
2017-02-16T08:29:43.747Z,37.31
2017-02-16T08:30:44.182Z,37.12
2017-02-16T08:31:44.135Z,37.31
2017-02-16T08:32:44.213Z,37.5
2017-02-16T08:33:44.726Z,37.12
2017-02-16T08:34:43.889Z,36.65
2017-02-16T08:35:44.534Z,36.27
2017-02-16T08:36:44.339Z,35.78
2017-02-16T08:37:44.456Z,35.61
2017-02-16T08:38:44.619Z,35.05
2017-02-16T08:39:44.421Z,35.14
2017-02-16T08:40:44.684Z,34.97
2017-02-16T08:41:44.639Z,34.2
2017-02-16T08:42:44.636Z,33.73
2017-02-16T08:43:44.827Z,33.63
2017-02-16T08:44:44.580Z,33.83
2017-02-16T08:45:45.029Z,33.34
2017-02-16T08:46:44.614Z,32.97
2017-02-16T08:47:44.655Z,33.26
2017-02-16T08:48:45.064Z,32.79
2017-02-16T08:49:44.665Z,32.7
2017-02-16T08:50:44.725Z,32.6
2017-02-16T08:51:44.757Z,32.7
2017-02-16T08:52:44.779Z,33.09
2017-02-16T08:53:45.300Z,33.17
2017-02-16T08:54:44.809Z,33.17
2017-02-16T08:55:44.797Z,33.84
2017-02-16T08:56:44.885Z,34.02
2017-02-16T08:57:44.525Z,34.31
2017-02-16T08:58:44.604Z,34.29
2017-02-16T08:59:44.642Z,34.68
2017-02-16T09:00:44.601Z,34.97
2017-02-16T09:01:44.949Z,33.89
2017-02-16T09:02:45.377Z,32.92
2017-02-16T09:03:45.486Z,32.82
2017-02-16T09:04:45.108Z,34.08
2017-02-16T09:05:44.740Z,34.28
2017-02-16T09:06:45.204Z,34.06
2017-02-16T09:07:45.198Z,33.78
2017-02-16T09:08:44.834Z,33.97
2017-02-16T09:09:45.252Z,34.16
2017-02-16T09:10:45.545Z,34.26
2017-02-16T09:11:45.793Z,34.16
2017-02-16T09:12:44.937Z,34.36
2017-02-16T09:13:45.659Z,34.64
2017-02-16T09:14:45.383Z,34.84
2017-02-16T09:15:45.605Z,34.74
2017-02-16T09:16:45.322Z,35.03
2017-02-16T09:17:45.879Z,34.84
2017-02-16T09:18:45.109Z,35.32
2017-02-16T09:19:45.114Z,35.03
2017-02-16T09:20:45.555Z,35.32
2017-02-16T09:21:45.446Z,35.22
2017-02-16T09:22:45.649Z,35.22
2017-02-16T09:23:45.245Z,35.69
2017-02-16T09:24:45.263Z,36
2017-02-16T09:25:45.283Z,36.07
2017-02-16T09:26:46.159Z,35.52
2017-02-16T09:27:45.678Z,35.71
2017-02-16T09:28:46.156Z,35.59
2017-02-16T09:29:45.398Z,35.4
2017-02-16T09:30:45.862Z,35.69
2017-02-16T09:31:46.022Z,35.78
2017-02-16T09:32:46.315Z,35.78
2017-02-16T09:33:46.327Z,35.78
2017-02-16T09:34:45.552Z,35.69
2017-02-16T09:35:45.551Z,35.88
2017-02-16T09:36:46.083Z,35.78
2017-02-16T09:37:46.007Z,36.36
2017-02-16T09:38:46.036Z,36.07
2017-02-16T09:39:46.075Z,36.17
2017-02-16T09:40:46.676Z,36.17
2017-02-16T09:41:46.368Z,36.36
2017-02-16T09:42:45.744Z,35.98
2017-02-16T09:43:46.186Z,36.36
2017-02-16T09:44:46.214Z,36.36
2017-02-16T09:45:46.156Z,36.38
2017-02-16T09:46:46.916Z,36.19
2017-02-16T09:47:46.286Z,36.29
2017-02-16T09:48:46.738Z,36.38
2017-02-16T09:49:46.490Z,36.38
2017-02-16T09:50:46.951Z,36.38
2017-02-16T09:51:46.398Z,36.38
2017-02-16T09:52:46.276Z,36.38
2017-02-16T09:53:46.812Z,36.48
2017-02-16T09:54:46.895Z,36.19
2017-02-16T09:55:46.831Z,36.38
2017-02-16T09:56:46.134Z,36.38
2017-02-16T09:57:46.804Z,36.19
2017-02-16T09:58:46.847Z,36.38
2017-02-16T09:59:46.664Z,36.09
2017-02-16T10:00:46.258Z,36.19
2017-02-16T10:01:46.661Z,35.9
2017-02-16T10:02:47.044Z,36.21
2017-02-16T10:03:46.725Z,36.19
2017-02-16T10:04:46.900Z,36
2017-02-16T10:05:47.044Z,36.38
2017-02-16T10:06:46.960Z,35.9
2017-02-16T10:07:46.689Z,36.11
2017-02-16T10:08:47.284Z,36.21
2017-02-16T10:09:47.096Z,36.11
2017-02-16T10:10:46.911Z,36.21
2017-02-16T10:11:46.937Z,35.92
2017-02-16T10:12:47.587Z,36.01
2017-02-16T10:13:46.999Z,36.21
2017-02-16T10:14:46.971Z,36.21
2017-02-16T10:15:47.103Z,36.01
2017-02-16T10:16:46.672Z,36.21
2017-02-16T10:17:46.962Z,36.11
2017-02-16T10:18:47.691Z,35.92
2017-02-16T10:19:47.530Z,35.72
2017-02-16T10:20:47.204Z,35.82
2017-02-16T10:21:47.794Z,36.01
2017-02-16T10:22:47.551Z,35.82
2017-02-16T10:23:47.277Z,35.92
2017-02-16T10:24:47.294Z,36.21
2017-02-16T10:25:46.931Z,36.11
2017-02-16T10:26:47.802Z,36.13
2017-02-16T10:27:47.238Z,36.32
2017-02-16T10:28:47.432Z,36.52
2017-02-16T10:29:47.430Z,36.32
2017-02-16T10:30:47.842Z,35.94
2017-02-16T10:31:47.657Z,36.32
2017-02-16T10:32:47.373Z,36.42
2017-02-16T10:33:47.549Z,36.42
2017-02-16T10:34:47.558Z,36.42
2017-02-16T10:35:47.902Z,36.42
2017-02-16T10:36:47.638Z,36.32
2017-02-16T10:37:47.505Z,36.13
2017-02-16T10:38:47.686Z,36.13
2017-02-16T10:39:47.718Z,36.13
2017-02-16T10:40:47.560Z,36.32
2017-02-16T10:41:47.375Z,36.13
2017-02-16T10:42:48.293Z,36.42
2017-02-16T10:43:47.555Z,36.59
2017-02-16T10:44:47.451Z,36.42
2017-02-16T10:45:47.488Z,36.3
2017-02-16T10:46:47.930Z,36.59
2017-02-16T10:47:48.549Z,36.4
2017-02-16T10:48:47.573Z,36.4
2017-02-16T10:49:47.610Z,36.3
2017-02-16T10:50:48.391Z,36.61
2017-02-16T10:51:47.648Z,36.5
2017-02-16T10:52:48.324Z,36.59
2017-02-16T10:53:48.427Z,36.59
2017-02-16T10:54:48.283Z,36.59
2017-02-16T10:55:48.235Z,36.59
2017-02-16T10:56:47.802Z,36.4
2017-02-16T10:57:48.476Z,36.5
2017-02-16T10:58:47.866Z,36.3
2017-02-16T10:59:48.251Z,36.4
2017-02-16T11:00:48.253Z,36.4
2017-02-16T11:01:48.767Z,36.32
2017-02-16T11:02:47.967Z,36.4
2017-02-16T11:03:48.392Z,36.42
2017-02-16T11:04:48.790Z,36.42
2017-02-16T11:05:48.970Z,36.32
2017-02-16T11:06:48.489Z,36.42
2017-02-16T11:07:48.504Z,36.52
2017-02-16T11:08:48.128Z,36.32
2017-02-16T11:09:48.545Z,36.71
2017-02-16T11:10:48.753Z,36.32
2017-02-16T11:11:48.421Z,36.61
2017-02-16T11:12:48.639Z,36.61
2017-02-16T11:13:49.060Z,36.32
2017-02-16T11:14:48.921Z,36.32
2017-02-16T11:15:48.730Z,36.52
2017-02-16T11:16:48.361Z,36.61
2017-02-16T11:17:48.375Z,36.61
2017-02-16T11:18:48.932Z,36.61
2017-02-16T11:19:48.679Z,36.42
2017-02-16T11:20:49.381Z,36.03
2017-02-16T11:21:48.509Z,36.61
2017-02-16T11:22:48.935Z,36.32
2017-02-16T11:23:48.964Z,36.13
2017-02-16T11:24:48.593Z,36.03
2017-02-16T11:25:48.616Z,36.42
2017-02-16T11:26:49.557Z,36.32
2017-02-16T11:27:49.664Z,36.42
2017-02-16T11:28:49.402Z,36.61
2017-02-16T11:29:49.103Z,36.52
2017-02-16T11:30:48.793Z,36.52
2017-02-16T11:31:49.648Z,36.42
2017-02-16T11:32:49.203Z,36.32
2017-02-16T11:33:49.235Z,36.61
2017-02-16T11:34:49.259Z,36.52
2017-02-16T11:35:49.627Z,36.42
2017-02-16T11:36:49.272Z,36.15
2017-02-16T11:37:49.351Z,35.95
2017-02-16T11:38:49.371Z,36.32
2017-02-16T11:39:49.610Z,36.05
2017-02-16T11:40:49.459Z,36.44
2017-02-16T11:41:49.049Z,36.24
2017-02-16T11:42:49.492Z,36.34
2017-02-16T11:43:49.695Z,36.34
2017-02-16T11:44:49.837Z,36.24
2017-02-16T11:45:49.575Z,36.24
2017-02-16T11:46:49.591Z,35.95
2017-02-16T11:47:49.620Z,35.86
2017-02-16T11:48:49.607Z,35.95
2017-02-16T11:49:49.306Z,35.76
2017-02-16T11:50:50.161Z,35.47
2017-02-16T11:51:49.758Z,35.95
2017-02-16T11:52:49.397Z,35.86
2017-02-16T11:53:49.489Z,35.86
2017-02-16T11:54:49.826Z,35.66
2017-02-16T11:55:49.464Z,35.57
2017-02-16T11:56:50.157Z,35.78
2017-02-16T11:57:50.120Z,35.68
2017-02-16T11:58:49.985Z,35.78
2017-02-16T11:59:49.809Z,35.58
2017-02-16T12:00:50.480Z,35.78
2017-02-16T12:01:50.309Z,35.97
2017-02-16T12:02:50.058Z,35.97
2017-02-16T12:03:49.982Z,36.07
2017-02-16T12:04:50.123Z,36.07
2017-02-16T12:05:49.910Z,35.78
2017-02-16T12:06:49.788Z,35.39
2017-02-16T12:07:50.202Z,35.29
2017-02-16T12:08:50.158Z,35.02
2017-02-16T12:09:50.471Z,35.1
2017-02-16T12:10:50.527Z,35.02
2017-02-16T12:11:50.111Z,35.21
2017-02-16T12:12:50.740Z,35.02
2017-02-16T12:13:50.624Z,34.54
2017-02-16T12:14:50.435Z,34.83
2017-02-16T12:15:50.487Z,34.63
2017-02-16T12:16:50.483Z,34.92
2017-02-16T12:17:50.285Z,34.54
2017-02-16T12:18:50.368Z,34.63
2017-02-16T12:19:50.545Z,34.15
2017-02-16T12:20:50.688Z,34.25
2017-02-16T12:21:50.690Z,34.36
2017-02-16T12:22:50.973Z,34.34
2017-02-16T12:23:50.930Z,34.44
2017-02-16T12:24:50.611Z,34.54
2017-02-16T12:25:50.329Z,34.73
2017-02-16T12:26:50.894Z,33.67
2017-02-16T12:27:50.836Z,33.95
2017-02-16T12:28:51.059Z,34.15
2017-02-16T12:29:50.955Z,33.76
2017-02-16T12:30:50.617Z,33.78
2017-02-16T12:31:50.970Z,33.87
2017-02-16T12:32:50.528Z,33.49
2017-02-16T12:33:51.206Z,33.29
2017-02-16T12:34:50.596Z,33.22
2017-02-16T12:35:51.167Z,33.02
2017-02-16T12:36:50.899Z,33.12
2017-02-16T12:37:51.075Z,32.73
2017-02-16T12:38:51.365Z,32.92
2017-02-16T12:39:51.133Z,32.44
2017-02-16T12:40:51.450Z,32.64
2017-02-16T12:41:51.362Z,32.34
2017-02-16T12:42:50.820Z,32.36
2017-02-16T12:43:51.204Z,32.46
2017-02-16T12:44:51.111Z,32.17
2017-02-16T12:45:50.923Z,32.54
2017-02-16T12:46:50.941Z,32.24
2017-02-16T12:47:51.369Z,32.64
2017-02-16T12:48:51.785Z,32.54
2017-02-16T12:49:51.076Z,32.34
2017-02-16T12:50:51.451Z,32.56
2017-02-16T12:51:51.495Z,32.26
2017-02-16T12:52:51.129Z,32.34
2017-02-16T12:53:51.808Z,32.56
2017-02-16T12:54:51.578Z,32.64
2017-02-16T12:55:51.215Z,32.34